Time;durP1;ratioP1;P1;durP2;ratioP2;P2;SDS_P1;SDS_P2;PMS_P1;PMS_P2;Temp;Humidity;BMP_temperature;BMP_pressure;BME280_temperature;BME280_humidity;BME280_pressure;Samples;Min_cycle;Max_cycle;Signal;HPM_P1;HPM_P2
2021/12/16 00:01:47;;;;;;;19.70;14.00;;;4.90;99.90;;;;;;5022292;28;20277;-80
2021/12/16 00:05:07;;;;;;;16.63;13.33;;;4.90;99.90;;;;;;5016933;28;20656;-80
2021/12/16 00:07:25;;;;;;;15.93;13.33;;;4.90;99.90;;;;;;5029505;28;20202;-79
2021/12/16 00:10:02;;;;;;;15.27;12.10;;;4.90;99.90;;;;;;5029265;28;20223;-80
2021/12/16 00:29:33;;;;;;;15.00;11.87;;;4.90;99.90;;;;;;5023184;28;20188;-82
2021/12/16 00:32:06;;;;;;;13.07;10.10;;;4.80;99.90;;;;;;5023577;28;20228;-81
2021/12/16 00:34:35;;;;;;;15.93;9.77;;;4.70;99.90;;;;;;5039230;28;20671;-81
2021/12/16 00:37:02;;;;;;;11.67;9.30;;;4.70;99.90;;;;;;5035704;28;20673;-81
2021/12/16 00:39:36;;;;;;;12.60;9.13;;;4.70;99.90;;;;;;5024256;28;20197;-81
2021/12/16 00:42:10;;;;;;;12.00;9.30;;;4.70;99.90;;;;;;5022718;28;20625;-81
2021/12/16 00:47:34;;;;;;;10.47;8.73;;;4.70;99.90;;;;;;5029669;28;20689;-81
2021/12/16 00:50:21;;;;;;;12.27;9.60;;;4.60;99.90;;;;;;5021213;28;20256;-81
2021/12/16 00:55:43;;;;;;;14.40;10.27;;;4.60;99.90;;;;;;5021316;28;20192;-81
2021/12/16 00:58:12;;;;;;;12.80;9.33;;;4.60;99.90;;;;;;5026697;28;20258;-81
2021/12/16 01:00:40;;;;;;;11.80;9.67;;;4.60;99.90;;;;;;5033846;28;20250;-80
2021/12/16 01:03:19;;;;;;;12.40;9.60;;;4.60;99.90;;;;;;5028068;28;20295;-80
2021/12/16 01:06:08;;;;;;;12.03;9.27;;;4.60;99.90;;;;;;5027907;28;20232;-81
2021/12/16 01:33:59;;;;;;;11.20;8.30;;;4.50;99.90;;;;;;5022036;28;20216;-80
2021/12/16 01:36:43;;;;;;;11.37;8.80;;;4.50;99.90;;;;;;5032466;28;20250;-80
2021/12/16 01:42:21;;;;;;;11.23;8.53;;;4.50;99.90;;;;;;5023428;28;20216;-80
2021/12/16 01:47:54;;;;;;;11.27;8.83;;;4.50;99.90;;;;;;5024599;28;20665;-80
2021/12/16 01:50:27;;;;;;;11.30;8.07;;;4.40;99.90;;;;;;5018316;28;20240;-80
2021/12/16 01:55:49;;;;;;;13.80;12.50;;;4.40;99.90;;;;;;5041236;28;20251;-80
2021/12/16 01:58:20;;;;;;;14.30;13.00;;;4.40;99.90;;;;;;5025061;28;20200;-79
2021/12/16 02:00:58;;;;;;;15.03;13.73;;;4.40;99.90;;;;;;5023595;28;20228;-80
2021/12/16 02:03:39;;;;;;;13.63;12.43;;;4.40;99.90;;;;;;5032582;28;20579;-81
2021/12/16 02:06:14;;;;;;;14.10;12.77;;;4.40;99.90;;;;;;5022891;28;20203;-80
2021/12/16 02:08:41;;;;;;;14.70;13.37;;;4.40;99.90;;;;;;5020213;28;20200;-80
2021/12/16 02:11:24;;;;;;;13.90;12.70;;;4.40;99.90;;;;;;5025891;28;20838;-80
2021/12/16 02:27:51;;;;;;;13.57;11.10;;;4.30;99.90;;;;;;5022661;28;20217;-80
2021/12/16 02:36:26;;;;;;;16.77;15.17;;;4.30;99.90;;;;;;5004912;28;20196;-80
2021/12/16 02:38:59;;;;;;;18.10;16.50;;;4.20;99.90;;;;;;5021959;28;20594;-80
2021/12/16 02:41:27;;;;;;;17.30;15.70;;;4.20;99.90;;;;;;5026440;28;20219;-80
2021/12/16 02:44:11;;;;;;;17.97;16.20;;;4.20;99.90;;;;;;5026476;28;20266;-80
2021/12/16 02:49:30;;;;;;;19.27;17.67;;;4.20;99.90;;;;;;5021378;28;20199;-80
2021/12/16 02:51:57;;;;;;;18.83;17.20;;;4.20;99.90;;;;;;5023226;28;20208;-80
2021/12/16 02:54:28;;;;;;;13.20;9.73;;;4.20;99.90;;;;;;5028594;28;20196;-80
2021/12/16 02:56:57;;;;;;;15.43;10.63;;;4.20;99.90;;;;;;5029049;28;20207;-80
2021/12/16 02:59:28;;;;;;;17.67;11.30;;;4.20;99.90;;;;;;5022571;28;20204;-80
2021/12/16 03:02:00;;;;;;;14.30;10.50;;;4.20;99.90;;;;;;5022140;28;20220;-81
2021/12/16 03:04:30;;;;;;;15.10;13.50;;;4.10;99.90;;;;;;5035863;28;20355;-81
2021/12/16 03:06:59;;;;;;;15.97;14.23;;;4.10;99.90;;;;;;5024282;28;20231;-81
2021/12/16 03:12:35;;;;;;;19.73;17.93;;;4.10;99.90;;;;;;5020432;28;20200;-81
2021/12/16 03:15:11;;;;;;;21.23;19.20;;;4.00;99.90;;;;;;5024284;28;20283;-81
2021/12/16 03:17:46;;;;;;;19.50;17.80;;;4.00;99.90;;;;;;5023472;28;20235;-81
2021/12/16 03:20:19;;;;;;;20.13;18.23;;;4.10;99.90;;;;;;5035276;28;20291;-80
2021/12/16 03:22:59;;;;;;;21.10;19.07;;;4.00;99.90;;;;;;5015630;28;20201;-81
2021/12/16 03:25:40;;;;;;;21.70;19.47;;;4.00;99.90;;;;;;5030324;28;20202;-81
2021/12/16 03:28:33;;;;;;;21.67;19.70;;;3.90;99.90;;;;;;5027643;28;20188;-80
2021/12/16 03:31:27;;;;;;;21.10;19.07;;;4.00;99.90;;;;;;5021672;28;20310;-80
2021/12/16 03:37:12;;;;;;;21.70;19.70;;;4.00;99.90;;;;;;5026413;28;20513;-81
2021/12/16 03:39:40;;;;;;;21.23;19.43;;;4.00;99.90;;;;;;5037704;28;20638;-80
2021/12/16 03:42:09;;;;;;;21.20;19.40;;;4.00;99.90;;;;;;5027720;28;20696;-77
2021/12/16 03:44:51;;;;;;;22.07;20.07;;;4.00;99.90;;;;;;5048630;28;20223;-77
2021/12/16 03:47:22;;;;;;;20.50;18.70;;;4.00;99.90;;;;;;5024655;28;20676;-77
2021/12/16 03:49:49;;;;;;;20.37;18.57;;;4.00;99.90;;;;;;5039229;28;20192;-77
2021/12/16 03:52:17;;;;;;;19.93;18.23;;;4.00;99.90;;;;;;5043052;28;20664;-78
2021/12/16 03:54:49;;;;;;;21.10;19.20;;;4.10;99.90;;;;;;5031766;28;20867;-77
2021/12/16 03:57:24;;;;;;;19.67;18.10;;;4.10;99.90;;;;;;5049329;28;20298;-77
2021/12/16 03:59:52;;;;;;;20.27;18.50;;;4.10;99.90;;;;;;5036612;28;20412;-77
2021/12/16 04:02:34;;;;;;;20.63;18.83;;;4.10;99.90;;;;;;5034676;28;20195;-77
2021/12/16 04:05:04;;;;;;;21.10;19.13;;;4.20;99.90;;;;;;5029961;28;20200;-78
2021/12/16 04:07:38;;;;;;;21.90;20.00;;;4.10;99.90;;;;;;5032252;28;20199;-77
2021/12/16 04:10:34;;;;;;;22.30;20.60;;;4.20;99.90;;;;;;5041108;28;20223;-77
2021/12/16 04:13:08;;;;;;;21.47;19.70;;;4.20;99.90;;;;;;5040135;28;20461;-79
2021/12/16 04:15:35;;;;;;;20.47;18.87;;;4.20;99.90;;;;;;5039310;28;20287;-79
2021/12/16 04:18:03;;;;;;;21.10;19.20;;;4.20;99.90;;;;;;5035331;28;20196;-80
2021/12/16 04:20:30;;;;;;;21.20;19.40;;;4.30;99.90;;;;;;5038389;28;20223;-79
2021/12/16 04:22:58;;;;;;;21.53;19.53;;;4.20;99.90;;;;;;5046494;28;20254;-81
2021/12/16 04:25:28;;;;;;;21.50;19.70;;;4.20;99.90;;;;;;5026695;28;20196;-81
2021/12/16 04:27:58;;;;;;;21.63;19.63;;;4.30;99.90;;;;;;5023553;28;20287;-82
2021/12/16 04:30:29;;;;;;;21.53;19.63;;;4.30;99.90;;;;;;5020078;28;20231;-82
2021/12/16 04:32:57;;;;;;;19.60;18.00;;;4.30;99.90;;;;;;5025088;28;20204;-82
2021/12/16 04:35:28;;;;;;;19.00;17.53;;;4.30;99.90;;;;;;5025549;28;20564;-81
2021/12/16 04:37:55;;;;;;;20.07;18.50;;;4.30;99.90;;;;;;5033316;28;20199;-81
2021/12/16 04:40:28;;;;;;;18.80;17.20;;;4.30;99.90;;;;;;5026076;28;20689;-83
2021/12/16 04:43:01;;;;;;;18.80;17.30;;;4.30;99.90;;;;;;5028101;28;20204;-82
2021/12/16 04:45:35;;;;;;;17.27;15.87;;;4.30;99.90;;;;;;5027484;28;20262;-83
2021/12/16 04:48:06;;;;;;;17.77;16.37;;;4.30;99.90;;;;;;5019925;28;20291;-81
2021/12/16 04:50:38;;;;;;;17.70;16.20;;;4.30;99.90;;;;;;5025502;28;20590;-81
2021/12/16 04:53:06;;;;;;;17.97;16.47;;;4.30;99.90;;;;;;5024944;28;20315;-81
2021/12/16 04:55:37;;;;;;;17.13;15.93;;;4.30;99.90;;;;;;5028658;28;20197;-81
2021/12/16 04:58:04;;;;;;;16.93;15.73;;;4.30;99.90;;;;;;5032001;28;20249;-81
2021/12/16 05:00:33;;;;;;;17.77;16.27;;;4.30;99.90;;;;;;5024991;28;20220;-81
2021/12/16 05:03:14;;;;;;;17.23;15.90;;;4.30;99.90;;;;;;5019566;28;20312;-81
2021/12/16 05:05:42;;;;;;;17.80;16.40;;;4.30;99.90;;;;;;5023851;28;20192;-80
2021/12/16 05:08:10;;;;;;;17.87;16.47;;;4.30;99.90;;;;;;5025445;28;20197;-82
2021/12/16 05:11:01;;;;;;;17.20;15.93;;;4.30;99.90;;;;;;5032782;28;20255;-82
2021/12/16 05:13:30;;;;;;;17.73;16.23;;;4.30;99.90;;;;;;5027598;28;20218;-82
2021/12/16 05:16:03;;;;;;;17.47;16.07;;;4.30;99.90;;;;;;5027455;28;20254;-81
2021/12/16 05:18:37;;;;;;;17.47;16.10;;;4.30;99.90;;;;;;5023941;28;20211;-83
2021/12/16 05:21:07;;;;;;;16.80;15.60;;;4.40;99.90;;;;;;5027104;28;20786;-81
2021/12/16 05:26:21;;;;;;;17.50;16.17;;;4.40;99.90;;;;;;5037944;28;20594;-81
2021/12/16 05:29:03;;;;;;;17.03;15.73;;;4.40;99.90;;;;;;5027356;28;20227;-82
2021/12/16 05:31:32;;;;;;;17.07;15.67;;;4.40;99.90;;;;;;5023961;28;20216;-81
2021/12/16 05:34:00;;;;;;;16.70;15.40;;;4.40;99.90;;;;;;5024085;28;20204;-81
2021/12/16 05:36:30;;;;;;;15.87;14.77;;;4.40;99.90;;;;;;5023097;28;20208;-81
2021/12/16 05:38:57;;;;;;;16.43;15.23;;;4.40;99.90;;;;;;5023975;28;20668;-81
2021/12/16 05:41:27;;;;;;;16.57;15.43;;;4.40;99.90;;;;;;5034244;28;20246;-81
2021/12/16 05:43:58;;;;;;;16.90;15.53;;;4.50;99.90;;;;;;5021204;28;20231;-81
2021/12/16 05:46:26;;;;;;;16.83;15.53;;;4.50;99.90;;;;;;5025900;28;20574;-81
2021/12/16 05:48:58;;;;;;;16.17;14.97;;;4.40;99.90;;;;;;5027050;28;20192;-81
2021/12/16 05:51:42;;;;;;;16.50;15.20;;;4.50;99.90;;;;;;5028619;28;20688;-81
2021/12/16 05:54:09;;;;;;;17.10;15.70;;;4.50;99.90;;;;;;5032540;28;20231;-81
2021/12/16 05:56:59;;;;;;;17.67;16.17;;;4.50;99.90;;;;;;5018509;28;20206;-81
2021/12/16 05:59:26;;;;;;;16.03;14.83;;;4.50;99.90;;;;;;5021537;28;20196;-81
2021/12/16 06:01:53;;;;;;;16.90;15.50;;;4.50;99.90;;;;;;5031588;28;20238;-82
2021/12/16 06:04:28;;;;;;;16.90;15.70;;;4.60;99.90;;;;;;5027635;28;20272;-82
2021/12/16 06:07:00;;;;;;;16.60;15.40;;;4.50;99.90;;;;;;5026083;28;20296;-82
2021/12/16 06:09:27;;;;;;;16.80;15.27;;;4.60;99.90;;;;;;5020434;28;20215;-82
2021/12/16 06:11:54;;;;;;;15.73;14.63;;;4.60;99.90;;;;;;5027105;28;20248;-82
2021/12/16 06:14:26;;;;;;;15.17;14.13;;;4.60;99.90;;;;;;5026646;28;20660;-83
2021/12/16 06:22:48;;;;;;;17.10;15.70;;;4.50;99.90;;;;;;5025934;28;20211;-82
2021/12/16 06:28:06;;;;;;;16.43;15.13;;;4.60;99.90;;;;;;5024013;28;20191;-82
2021/12/16 06:30:36;;;;;;;16.17;14.90;;;4.60;99.90;;;;;;5030283;28;20228;-82
2021/12/16 06:33:03;;;;;;;15.70;14.53;;;4.60;99.90;;;;;;5020279;28;20193;-82
2021/12/16 06:35:32;;;;;;;15.33;14.33;;;4.60;99.90;;;;;;5025769;28;20196;-81
2021/12/16 06:37:59;;;;;;;16.73;15.33;;;4.60;99.90;;;;;;5025552;28;20603;-81
2021/12/16 06:40:31;;;;;;;15.37;14.13;;;4.60;99.90;;;;;;5030005;28;20681;-81
2021/12/16 06:43:19;;;;;;;15.00;14.00;;;4.70;99.90;;;;;;5024497;28;20323;-82
2021/12/16 06:45:49;;;;;;;14.93;13.83;;;4.70;99.90;;;;;;5019105;28;20566;-83
2021/12/16 06:48:21;;;;;;;15.47;14.10;;;4.70;99.90;;;;;;5029367;28;20208;-80
2021/12/16 06:50:54;;;;;;;15.20;14.10;;;4.70;99.90;;;;;;5028375;28;20306;-82
2021/12/16 06:53:27;;;;;;;15.63;14.43;;;4.70;99.90;;;;;;5020769;28;20247;-82
2021/12/16 06:56:02;;;;;;;15.70;14.50;;;4.70;99.90;;;;;;5020743;28;20200;-81
2021/12/16 06:58:34;;;;;;;15.63;14.40;;;4.70;99.90;;;;;;5016540;28;20199;-81
2021/12/16 07:01:10;;;;;;;16.40;15.10;;;4.70;99.90;;;;;;5024700;28;20224;-81
2021/12/16 07:03:46;;;;;;;15.73;14.53;;;4.70;99.90;;;;;;5023741;28;20241;-81
2021/12/16 07:06:17;;;;;;;16.73;15.30;;;4.70;99.90;;;;;;5023296;28;20208;-81
2021/12/16 07:08:45;;;;;;;16.63;15.33;;;4.70;99.90;;;;;;5025802;28;20270;-81
2021/12/16 07:11:13;;;;;;;18.40;16.80;;;4.70;99.90;;;;;;5024245;28;20240;-81
2021/12/16 07:13:42;;;;;;;19.10;17.40;;;4.60;99.90;;;;;;5026253;28;20616;-81
2021/12/16 07:16:09;;;;;;;20.50;18.80;;;4.60;99.90;;;;;;5023514;28;20200;-81
2021/12/16 07:18:37;;;;;;;21.43;19.47;;;4.60;99.90;;;;;;5022642;28;20201;-81
2021/12/16 07:21:05;;;;;;;19.40;17.70;;;4.60;99.90;;;;;;5024201;28;20220;-81
2021/12/16 07:23:33;;;;;;;21.67;19.67;;;4.60;99.90;;;;;;5022221;28;20269;-81
2021/12/16 07:26:00;;;;;;;20.27;18.37;;;4.70;99.90;;;;;;5016472;28;20247;-81
2021/12/16 07:28:27;;;;;;;21.63;19.30;;;4.70;99.90;;;;;;5026399;28;20200;-81
2021/12/16 07:30:54;;;;;;;20.93;19.07;;;4.70;99.90;;;;;;5028585;28;20785;-81
2021/12/16 07:33:21;;;;;;;20.80;18.90;;;4.70;99.90;;;;;;5021483;28;20208;-81
2021/12/16 07:35:49;;;;;;;21.57;19.57;;;4.70;99.90;;;;;;5024114;28;20196;-82
2021/12/16 07:38:16;;;;;;;21.10;19.20;;;4.70;99.90;;;;;;5022449;28;20787;-81
2021/12/16 07:40:47;;;;;;;21.03;19.07;;;4.70;99.90;;;;;;5022625;28;20261;-81
2021/12/16 07:43:26;;;;;;;20.63;18.80;;;4.70;99.90;;;;;;5024070;28;20226;-81
2021/12/16 07:45:55;;;;;;;20.23;18.43;;;4.70;99.90;;;;;;5023711;28;20640;-81
2021/12/16 07:48:26;;;;;;;20.93;18.87;;;4.70;99.90;;;;;;5023637;28;20222;-81
2021/12/16 07:50:55;;;;;;;21.87;19.77;;;4.70;99.90;;;;;;5016922;28;20278;-81
2021/12/16 07:53:23;;;;;;;21.17;19.00;;;4.80;99.90;;;;;;5026338;28;20297;-82
2021/12/16 07:55:51;;;;;;;21.93;19.87;;;4.70;99.90;;;;;;5024880;28;20691;-81
2021/12/16 07:58:20;;;;;;;22.23;19.83;;;4.70;99.90;;;;;;5021704;28;20206;-81
2021/12/16 08:00:48;;;;;;;20.63;18.87;;;4.80;99.90;;;;;;5018344;28;20754;-82
2021/12/16 08:03:16;;;;;;;21.73;19.63;;;4.90;99.90;;;;;;5011844;28;20220;-81
2021/12/16 08:05:47;;;;;;;21.53;19.43;;;4.90;99.90;;;;;;5019814;28;20777;-82
2021/12/16 08:08:15;;;;;;;22.53;20.43;;;4.80;99.90;;;;;;5020362;28;20224;-82
2021/12/16 08:10:42;;;;;;;23.60;21.27;;;4.80;99.90;;;;;;5021207;28;20243;-82
2021/12/16 08:13:11;;;;;;;23.37;21.13;;;4.90;99.90;;;;;;5029782;28;20286;-81
2021/12/16 08:15:38;;;;;;;21.47;19.37;;;4.90;99.90;;;;;;5018439;28;20208;-81
2021/12/16 08:18:06;;;;;;;22.73;20.63;;;4.90;99.90;;;;;;5027814;28;20223;-81
2021/12/16 08:20:33;;;;;;;22.73;20.53;;;4.90;99.90;;;;;;5022553;28;20641;-82
2021/12/16 08:23:00;;;;;;;22.70;20.27;;;4.90;99.90;;;;;;5030239;28;20598;-82
2021/12/16 08:25:29;;;;;;;21.33;19.30;;;4.90;99.90;;;;;;5022831;28;20672;-81
2021/12/16 08:27:57;;;;;;;21.87;19.70;;;5.00;99.90;;;;;;5022265;28;20196;-81
2021/12/16 08:30:30;;;;;;;23.93;21.57;;;5.00;99.90;;;;;;5016921;28;20227;-82
2021/12/16 08:32:59;;;;;;;23.27;21.07;;;5.00;99.90;;;;;;5019067;28;20246;-81
2021/12/16 08:35:27;;;;;;;22.87;20.63;;;5.10;99.90;;;;;;5027507;28;20204;-81
2021/12/16 08:37:53;;;;;;;21.23;19.13;;;5.10;99.90;;;;;;5024063;28;20536;-81
2021/12/16 08:40:24;;;;;;;22.90;20.60;;;5.10;99.90;;;;;;5022470;28;20225;-81
2021/12/16 08:42:51;;;;;;;22.87;20.57;;;5.10;99.90;;;;;;5016419;28;20306;-82
2021/12/16 08:45:27;;;;;;;21.63;19.43;;;5.10;99.90;;;;;;5022486;28;20215;-81
2021/12/16 08:47:56;;;;;;;21.53;19.43;;;5.10;99.90;;;;;;5024458;28;20195;-81
2021/12/16 08:50:28;;;;;;;19.73;18.00;;;5.10;99.90;;;;;;5021046;28;20254;-81
2021/12/16 08:52:55;;;;;;;19.37;17.57;;;5.10;99.90;;;;;;5020237;28;20404;-81
2021/12/16 08:55:22;;;;;;;22.07;19.97;;;5.10;99.90;;;;;;5026577;28;20210;-81
2021/12/16 08:57:50;;;;;;;20.57;18.53;;;5.20;99.90;;;;;;5022805;28;20638;-81
2021/12/16 09:00:21;;;;;;;22.73;20.53;;;5.20;99.90;;;;;;5015301;28;20246;-82
2021/12/16 09:02:50;;;;;;;22.03;19.83;;;5.20;99.90;;;;;;5025637;28;20237;-82
2021/12/16 09:05:17;;;;;;;21.83;19.73;;;5.20;99.90;;;;;;5024799;28;20201;-82
2021/12/16 09:07:48;;;;;;;22.57;20.17;;;5.20;99.90;;;;;;5019492;28;20267;-83
2021/12/16 09:10:21;;;;;;;21.03;18.93;;;5.20;99.90;;;;;;5030492;28;20219;-82
2021/12/16 09:12:53;;;;;;;22.13;20.03;;;5.30;99.90;;;;;;5026831;28;20681;-82
2021/12/16 09:15:21;;;;;;;21.17;18.97;;;5.30;99.90;;;;;;5024278;28;20238;-81
2021/12/16 09:17:49;;;;;;;21.23;19.10;;;5.30;99.90;;;;;;5025452;28;20196;-82
2021/12/16 09:20:17;;;;;;;19.70;17.80;;;5.40;99.90;;;;;;5026926;28;20223;-82
2021/12/16 09:22:44;;;;;;;19.60;17.70;;;5.40;99.90;;;;;;5024716;28;20213;-82
2021/12/16 09:25:12;;;;;;;20.37;18.27;;;5.40;99.90;;;;;;5025231;28;20204;-81
2021/12/16 09:27:40;;;;;;;21.63;19.47;;;5.40;99.90;;;;;;5029251;28;20288;-81
2021/12/16 09:30:12;;;;;;;20.60;18.53;;;5.40;99.90;;;;;;5030418;28;20739;-82
2021/12/16 09:32:39;;;;;;;21.33;19.30;;;5.40;99.90;;;;;;5028239;28;20555;-82
2021/12/16 09:35:10;;;;;;;21.83;19.67;;;5.50;99.90;;;;;;5027118;28;20636;-81
2021/12/16 09:37:38;;;;;;;21.53;19.37;;;5.40;99.90;;;;;;5022720;28;20660;-81
2021/12/16 09:40:07;;;;;;;20.90;18.80;;;5.50;99.90;;;;;;5023480;28;20216;-82
2021/12/16 09:42:35;;;;;;;21.87;19.63;;;5.60;99.90;;;;;;5028026;28;20216;-81
2021/12/16 09:45:02;;;;;;;19.23;16.13;;;5.60;99.90;;;;;;5028301;28;20197;-82
2021/12/16 09:47:29;;;;;;;18.03;12.47;;;5.60;99.90;;;;;;5031997;28;20197;-81
2021/12/16 09:49:56;;;;;;;16.43;12.43;;;5.70;99.90;;;;;;5028045;28;20254;-81
2021/12/16 09:52:25;;;;;;;18.57;12.93;;;5.70;99.90;;;;;;5031090;28;20201;-81
2021/12/16 09:54:51;;;;;;;17.97;13.10;;;5.70;99.90;;;;;;5022892;28;20205;-82
2021/12/16 09:57:19;;;;;;;17.40;12.53;;;5.70;99.90;;;;;;5023740;28;20200;-83
2021/12/16 09:59:46;;;;;;;18.97;12.80;;;5.80;99.90;;;;;;5028304;28;20620;-82
2021/12/16 10:02:16;;;;;;;20.53;13.63;;;5.80;99.90;;;;;;5021195;28;20227;-81
2021/12/16 10:04:45;;;;;;;18.67;13.17;;;5.80;99.90;;;;;;5025107;28;20201;-79
2021/12/16 10:07:15;;;;;;;14.67;11.63;;;5.80;99.90;;;;;;5025759;28;20202;-81
2021/12/16 10:09:44;;;;;;;17.53;12.57;;;5.90;99.90;;;;;;5026497;28;20210;-81
2021/12/16 10:12:15;;;;;;;18.40;12.30;;;6.00;99.90;;;;;;5026788;28;20193;-81
2021/12/16 10:15:04;;;;;;;18.57;12.50;;;6.00;99.90;;;;;;5028178;28;20201;-81
2021/12/16 10:17:33;;;;;;;16.00;11.47;;;6.00;99.90;;;;;;5018133;28;20287;-82
2021/12/16 10:20:12;;;;;;;16.70;11.63;;;6.00;99.90;;;;;;5028369;28;20259;-81
2021/12/16 10:22:42;;;;;;;16.60;11.47;;;6.10;99.90;;;;;;5025246;28;20208;-81
2021/12/16 10:25:25;;;;;;;15.90;11.17;;;6.10;99.90;;;;;;5026654;28;20643;-81
2021/12/16 10:28:03;;;;;;;15.23;11.00;;;6.10;99.90;;;;;;5022512;28;20205;-81
2021/12/16 10:30:41;;;;;;;15.17;10.83;;;6.20;99.90;;;;;;5023007;28;20580;-81
2021/12/16 10:33:19;;;;;;;14.63;13.03;;;6.10;99.90;;;;;;5023505;28;20197;-81
2021/12/16 10:35:47;;;;;;;18.00;12.70;;;6.20;99.90;;;;;;5025765;28;20220;-81
2021/12/16 10:38:17;;;;;;;15.83;11.13;;;6.20;99.90;;;;;;5030011;28;20674;-81
2021/12/16 10:40:48;;;;;;;17.47;11.53;;;6.20;99.90;;;;;;5024368;28;20239;-81
2021/12/16 10:43:17;;;;;;;15.57;11.37;;;6.20;99.90;;;;;;5020272;28;20217;-81
2021/12/16 10:45:47;;;;;;;14.40;10.87;;;6.20;99.90;;;;;;5023621;28;20201;-81
2021/12/16 10:48:18;;;;;;;14.43;11.40;;;6.30;99.90;;;;;;5026815;28;20622;-81
2021/12/16 10:50:51;;;;;;;14.63;10.90;;;6.30;99.90;;;;;;5024163;28;20228;-81
2021/12/16 10:53:50;;;;;;;14.77;11.13;;;6.40;99.90;;;;;;5021927;28;20190;-82
2021/12/16 10:56:23;;;;;;;14.77;13.03;;;6.40;99.90;;;;;;5021329;28;20205;-81
2021/12/16 10:58:52;;;;;;;14.17;10.77;;;6.40;99.90;;;;;;5024200;28;20292;-82
2021/12/16 11:01:39;;;;;;;18.77;16.77;;;6.40;99.90;;;;;;5022445;28;20715;-81
2021/12/16 11:04:11;;;;;;;18.03;16.33;;;6.40;99.90;;;;;;5023822;28;20239;-81
2021/12/16 11:06:41;;;;;;;16.10;14.03;;;6.40;99.90;;;;;;5024892;28;20572;-82
2021/12/16 11:09:45;;;;;;;15.30;12.87;;;6.50;99.90;;;;;;5023755;28;20262;-82
2021/12/16 11:12:21;;;;;;;14.97;10.77;;;6.50;99.90;;;;;;5016532;28;20209;-81
2021/12/16 11:14:51;;;;;;;15.00;10.20;;;6.50;99.90;;;;;;5020587;28;20259;-81
2021/12/16 11:17:20;;;;;;;16.77;12.13;;;6.50;99.90;;;;;;5024619;28;20260;-82
2021/12/16 11:19:58;;;;;;;13.50;10.73;;;6.50;99.90;;;;;;5020427;28;20209;-82
2021/12/16 11:22:30;;;;;;;15.10;10.83;;;6.50;99.90;;;;;;5022273;28;20209;-82
2021/12/16 11:24:58;;;;;;;13.93;10.83;;;6.50;99.90;;;;;;5024954;28;20231;-82
2021/12/16 11:27:31;;;;;;;13.80;11.93;;;6.60;99.90;;;;;;5021198;28;20197;-82
2021/12/16 11:30:18;;;;;;;22.03;20.07;;;6.60;99.90;;;;;;5012430;28;20209;-82
2021/12/16 11:32:47;;;;;;;12.57;9.47;;;6.60;99.90;;;;;;5014497;28;20689;-81
2021/12/16 11:35:43;;;;;;;12.63;9.93;;;6.60;99.90;;;;;;5022883;28;20202;-81
2021/12/16 11:38:24;;;;;;;16.33;13.30;;;6.60;99.90;;;;;;5010580;28;20572;-81
2021/12/16 11:41:12;;;;;;;13.83;12.27;;;6.60;99.90;;;;;;5016612;28;20270;-81
2021/12/16 11:44:07;;;;;;;16.07;13.23;;;6.50;99.90;;;;;;5019764;28;20282;-81
2021/12/16 11:46:40;;;;;;;12.50;9.67;;;6.60;99.90;;;;;;5024346;28;20256;-81
2021/12/16 11:49:11;;;;;;;14.63;13.07;;;6.70;99.90;;;;;;5020401;28;20611;-81
2021/12/16 11:51:42;;;;;;;15.10;12.63;;;6.70;99.90;;;;;;5022966;28;20698;-82
2021/12/16 11:54:18;;;;;;;15.43;11.63;;;6.60;99.90;;;;;;5022966;28;20205;-81
2021/12/16 11:56:52;;;;;;;15.23;12.37;;;6.60;99.90;;;;;;5024078;28;20197;-81
2021/12/16 11:59:26;;;;;;;13.70;12.10;;;6.60;99.90;;;;;;5022819;28;20216;-81
2021/12/16 12:01:53;;;;;;;15.63;13.37;;;6.60;99.90;;;;;;5027688;28;20270;-81
2021/12/16 12:04:33;;;;;;;15.93;12.37;;;6.60;99.90;;;;;;5021846;28;20213;-81
2021/12/16 12:07:01;;;;;;;13.07;11.50;;;6.60;99.90;;;;;;5022607;28;20190;-82
2021/12/16 12:09:37;;;;;;;16.00;14.10;;;6.70;99.90;;;;;;5023431;28;20194;-82
2021/12/16 12:12:04;;;;;;;18.20;13.67;;;6.70;99.90;;;;;;5027795;28;20606;-81
2021/12/16 12:14:36;;;;;;;12.50;9.80;;;6.60;99.90;;;;;;5024221;28;20615;-81
2021/12/16 12:17:06;;;;;;;17.00;12.67;;;6.60;99.90;;;;;;5029523;28;20205;-81
2021/12/16 12:19:33;;;;;;;14.23;12.50;;;6.60;99.90;;;;;;5026471;28;20203;-81
2021/12/16 12:22:01;;;;;;;14.23;10.90;;;6.60;99.90;;;;;;5027914;28;20279;-80
2021/12/16 12:24:31;;;;;;;15.43;11.80;;;6.60;99.90;;;;;;5024928;28;20485;-80
2021/12/16 12:27:01;;;;;;;19.10;13.37;;;6.60;99.90;;;;;;5027953;28;20299;-80
2021/12/16 12:29:30;;;;;;;17.50;12.60;;;6.60;99.90;;;;;;5025557;28;20202;-80
2021/12/16 12:32:02;;;;;;;14.73;11.10;;;6.60;99.90;;;;;;5025437;28;20249;-80
2021/12/16 12:34:30;;;;;;;16.00;12.67;;;6.60;99.90;;;;;;5021641;28;20258;-81
2021/12/16 12:37:00;;;;;;;18.70;14.10;;;6.60;99.90;;;;;;5026451;28;20264;-81
2021/12/16 12:39:32;;;;;;;15.90;12.77;;;6.60;99.90;;;;;;5023212;28;20205;-80
2021/12/16 12:41:59;;;;;;;14.97;12.20;;;6.60;99.90;;;;;;5025206;28;20212;-81
2021/12/16 12:44:27;;;;;;;15.33;11.97;;;6.60;99.90;;;;;;5025450;28;20218;-81
2021/12/16 12:46:54;;;;;;;17.23;13.33;;;6.50;99.90;;;;;;5023603;28;20264;-81
2021/12/16 12:49:28;;;;;;;14.90;12.10;;;6.50;99.90;;;;;;5023688;28;20260;-80
2021/12/16 12:52:04;;;;;;;14.83;13.13;;;6.50;99.90;;;;;;5021873;28;20220;-81
2021/12/16 12:54:33;;;;;;;16.87;15.17;;;6.50;99.90;;;;;;5024036;28;20205;-81
2021/12/16 12:57:17;;;;;;;14.17;10.80;;;6.60;99.90;;;;;;5030833;28;20205;-80
2021/12/16 12:59:44;;;;;;;13.80;10.90;;;6.60;99.90;;;;;;5042688;28;20263;-80
2021/12/16 13:02:17;;;;;;;20.47;18.77;;;6.70;99.90;;;;;;5026236;28;20194;-80
2021/12/16 13:04:50;;;;;;;20.50;18.53;;;6.70;99.90;;;;;;5023811;28;20604;-80
2021/12/16 13:07:17;;;;;;;13.60;10.43;;;6.70;99.90;;;;;;5028450;28;20207;-81
2021/12/16 13:09:47;;;;;;;21.27;19.37;;;6.60;99.90;;;;;;5022274;28;20277;-80
2021/12/16 13:12:41;;;;;;;21.17;19.27;;;6.60;99.90;;;;;;5025882;28;20202;-81
2021/12/16 13:15:32;;;;;;;17.70;13.43;;;6.60;99.90;;;;;;5025467;28;20225;-81
2021/12/16 13:23:56;;;;;;;13.57;10.70;;;6.60;99.90;;;;;;5024605;28;20209;-80
2021/12/16 13:26:42;;;;;;;11.73;9.63;;;6.60;99.90;;;;;;5030534;28;20210;-80
2021/12/16 13:29:28;;;;;;;15.17;11.57;;;6.60;99.90;;;;;;5025189;28;20205;-80
2021/12/16 13:32:07;;;;;;;16.33;11.80;;;6.60;99.90;;;;;;5031336;28;20263;-81
2021/12/16 13:34:49;;;;;;;14.20;11.37;;;6.60;99.90;;;;;;5023733;28;20206;-80
2021/12/16 13:37:24;;;;;;;13.17;10.83;;;6.70;99.90;;;;;;5032788;28;20189;-79
2021/12/16 13:39:54;;;;;;;13.73;10.50;;;6.60;99.90;;;;;;5023529;28;20576;-80
2021/12/16 13:42:21;;;;;;;14.23;11.33;;;6.70;99.90;;;;;;5027793;28;20665;-80
2021/12/16 13:44:56;;;;;;;14.47;11.63;;;6.60;99.90;;;;;;5035660;28;20604;-80
2021/12/16 13:47:39;;;;;;;15.70;10.43;;;6.60;99.90;;;;;;5018857;28;20227;-80
2021/12/16 14:01:52;;;;;;;14.07;11.40;;;6.70;99.90;;;;;;5022663;28;20218;-80
2021/12/16 14:07:27;;;;;;;14.30;11.17;;;6.70;99.90;;;;;;5014473;28;20302;-80
2021/12/16 14:10:05;;;;;;;14.90;13.07;;;6.70;99.90;;;;;;5029325;28;20200;-82
2021/12/16 14:15:59;;;;;;;17.40;13.50;;;6.70;99.90;;;;;;5100531;27;1234502;-81
2021/12/16 14:24:11;;;;;;;14.87;12.63;;;6.60;99.90;;;;;;5101411;28;20354;-81
2021/12/16 14:26:48;;;;;;;17.53;13.83;;;6.70;99.90;;;;;;5073541;28;20222;-81
2021/12/16 14:33:02;;;;;;;12.87;10.10;;;6.60;99.90;;;;;;5088525;28;20210;-81
2021/12/16 14:35:12;;;;;;;15.80;14.20;;;6.60;99.90;;;;;;5073087;28;20218;-81
2021/12/16 14:37:51;;;;;;;14.00;10.33;;;6.60;99.90;;;;;;5088868;28;20206;-81
2021/12/16 14:40:38;;;;;;;18.67;17.00;;;6.60;99.90;;;;;;5069364;28;20218;-81
2021/12/16 14:43:18;;;;;;;20.93;18.97;;;6.50;99.90;;;;;;5098060;28;20195;-81
2021/12/16 14:45:52;;;;;;;20.67;18.67;;;6.50;99.90;;;;;;5071401;28;20663;-80
2021/12/16 14:48:26;;;;;;;21.20;19.20;;;6.40;99.90;;;;;;5071642;28;20606;-81
2021/12/16 14:50:56;;;;;;;20.27;18.37;;;6.40;99.90;;;;;;5086828;28;20211;-81
2021/12/16 14:53:27;;;;;;;20.63;18.73;;;6.40;99.90;;;;;;5069374;28;20249;-80
2021/12/16 14:56:01;;;;;;;21.50;19.40;;;6.40;99.90;;;;;;5083278;28;20627;-80
2021/12/16 14:58:28;;;;;;;19.77;18.07;;;6.30;99.90;;;;;;5058977;28;20209;-80
2021/12/16 15:00:58;;;;;;;19.63;17.93;;;6.30;99.90;;;;;;5076719;28;20694;-78
2021/12/16 15:03:30;;;;;;;20.27;18.50;;;6.30;99.90;;;;;;5070787;28;20204;-77
2021/12/16 15:06:00;;;;;;;20.00;18.23;;;6.30;99.90;;;;;;5084686;28;20194;-77
2021/12/16 15:08:34;;;;;;;19.17;17.47;;;6.30;99.90;;;;;;5067390;28;20199;-78
2021/12/16 15:11:06;;;;;;;20.07;18.33;;;6.20;99.90;;;;;;5088656;28;20223;-78
2021/12/16 15:13:38;;;;;;;18.27;16.67;;;6.20;99.90;;;;;;5067854;28;20736;-78
2021/12/16 15:16:22;;;;;;;18.43;16.93;;;6.20;99.90;;;;;;5086295;28;20188;-77